sensor_id;sensor_type;location;lat;lon;timestamp;temperature;humidity
18506;DHT22;9382;53.242;10.438;2023-07-30T00:01:33;15.60;99.90
18506;DHT22;9382;53.242;10.438;2023-07-30T00:03:59;15.60;99.90
18506;DHT22;9382;53.242;10.438;2023-07-30T00:06:26;15.60;99.90
18506;DHT22;9382;53.242;10.438;2023-07-30T00:08:53;15.60;99.90
18506;DHT22;9382;53.242;10.438;2023-07-30T00:11:21;15.60;99.90
18506;DHT22;9382;53.242;10.438;2023-07-30T00:13:48;15.60;99.90
18506;DHT22;9382;53.242;10.438;2023-07-30T00:16:14;15.60;99.90
18506;DHT22;9382;53.242;10.438;2023-07-30T00:18:41;15.60;99.90
18506;DHT22;9382;53.242;10.438;2023-07-30T00:21:08;15.60;99.90
18506;DHT22;9382;53.242;10.438;2023-07-30T00:23:35;15.60;99.90
18506;DHT22;9382;53.242;10.438;2023-07-30T00:26:01;15.60;99.90
18506;DHT22;9382;53.242;10.438;2023-07-30T00:28:29;15.70;99.90
18506;DHT22;9382;53.242;10.438;2023-07-30T00:30:56;15.70;99.90
18506;DHT22;9382;53.242;10.438;2023-07-30T00:33:23;15.70;99.90
18506;DHT22;9382;53.242;10.438;2023-07-30T00:35:51;15.70;99.90
18506;DHT22;9382;53.242;10.438;2023-07-30T00:38:18;15.70;99.90
18506;DHT22;9382;53.242;10.438;2023-07-30T00:40:45;15.60;99.90
18506;DHT22;9382;53.242;10.438;2023-07-30T00:43:11;15.60;99.90
18506;DHT22;9382;53.242;10.438;2023-07-30T00:45:41;15.60;99.90
18506;DHT22;9382;53.242;10.438;2023-07-30T00:48:09;15.50;99.90
18506;DHT22;9382;53.242;10.438;2023-07-30T00:50:36;15.40;99.90
18506;DHT22;9382;53.242;10.438;2023-07-30T00:53:03;15.40;99.90
18506;DHT22;9382;53.242;10.438;2023-07-30T00:55:30;15.40;99.90
18506;DHT22;9382;53.242;10.438;2023-07-30T00:57:57;15.40;99.90
18506;DHT22;9382;53.242;10.438;2023-07-30T01:00:24;15.40;99.90
18506;DHT22;9382;53.242;10.438;2023-07-30T01:02:54;15.30;99.90
18506;DHT22;9382;53.242;10.438;2023-07-30T01:05:21;15.30;99.90
18506;DHT22;9382;53.242;10.438;2023-07-30T01:07:47;15.20;99.90
18506;DHT22;9382;53.242;10.438;2023-07-30T01:10:15;15.20;99.90
18506;DHT22;9382;53.242;10.438;2023-07-30T01:12:42;15.10;99.90
18506;DHT22;9382;53.242;10.438;2023-07-30T01:15:10;15.00;99.90
18506;DHT22;9382;53.242;10.438;2023-07-30T01:17:38;15.00;99.90
18506;DHT22;9382;53.242;10.438;2023-07-30T01:20:08;15.00;99.90
18506;DHT22;9382;53.242;10.438;2023-07-30T01:22:36;15.00;99.90
18506;DHT22;9382;53.242;10.438;2023-07-30T01:25:03;15.00;99.90
18506;DHT22;9382;53.242;10.438;2023-07-30T01:27:33;15.00;99.90
18506;DHT22;9382;53.242;10.438;2023-07-30T01:30:08;15.00;99.90
18506;DHT22;9382;53.242;10.438;2023-07-30T01:32:37;15.00;99.90
18506;DHT22;9382;53.242;10.438;2023-07-30T01:35:08;15.00;99.90
18506;DHT22;9382;53.242;10.438;2023-07-30T01:37:37;15.00;99.90
18506;DHT22;9382;53.242;10.438;2023-07-30T01:40:06;15.00;99.90
18506;DHT22;9382;53.242;10.438;2023-07-30T01:42:34;15.00;99.90
18506;DHT22;9382;53.242;10.438;2023-07-30T01:45:00;15.00;99.90
18506;DHT22;9382;53.242;10.438;2023-07-30T01:47:27;15.00;99.90
18506;DHT22;9382;53.242;10.438;2023-07-30T01:49:54;15.00;99.90
18506;DHT22;9382;53.242;10.438;2023-07-30T01:52:21;15.00;99.90
18506;DHT22;9382;53.242;10.438;2023-07-30T01:54:49;14.90;99.90
18506;DHT22;9382;53.242;10.438;2023-07-30T01:57:15;14.90;99.90
18506;DHT22;9382;53.242;10.438;2023-07-30T01:59:42;14.90;99.90
18506;DHT22;9382;53.242;10.438;2023-07-30T02:02:09;14.90;99.90
18506;DHT22;9382;53.242;10.438;2023-07-30T02:04:36;14.90;99.90
18506;DHT22;9382;53.242;10.438;2023-07-30T02:07:03;14.90;99.90
18506;DHT22;9382;53.242;10.438;2023-07-30T02:09:29;15.00;99.90
18506;DHT22;9382;53.242;10.438;2023-07-30T02:11:57;15.10;99.90
18506;DHT22;9382;53.242;10.438;2023-07-30T02:14:24;15.10;99.90
18506;DHT22;9382;53.242;10.438;2023-07-30T02:16:51;15.20;99.90
18506;DHT22;9382;53.242;10.438;2023-07-30T02:19:18;15.20;99.90
18506;DHT22;9382;53.242;10.438;2023-07-30T02:21:45;15.30;99.90
18506;DHT22;9382;53.242;10.438;2023-07-30T02:24:11;15.40;99.90
18506;DHT22;9382;53.242;10.438;2023-07-30T02:26:38;15.30;99.90
18506;DHT22;9382;53.242;10.438;2023-07-30T02:29:07;15.30;99.90
18506;DHT22;9382;53.242;10.438;2023-07-30T02:31:33;15.40;99.90
18506;DHT22;9382;53.242;10.438;2023-07-30T02:34:00;15.40;99.90
18506;DHT22;9382;53.242;10.438;2023-07-30T02:36:27;15.40;99.90
18506;DHT22;9382;53.242;10.438;2023-07-30T02:38:54;15.40;99.90
18506;DHT22;9382;53.242;10.438;2023-07-30T02:41:20;15.40;99.90
18506;DHT22;9382;53.242;10.438;2023-07-30T02:43:47;15.50;99.90
18506;DHT22;9382;53.242;10.438;2023-07-30T02:46:15;15.50;99.90
18506;DHT22;9382;53.242;10.438;2023-07-30T02:48:42;15.60;99.90
18506;DHT22;9382;53.242;10.438;2023-07-30T02:51:09;15.60;99.90
18506;DHT22;9382;53.242;10.438;2023-07-30T02:53:35;15.60;99.90
18506;DHT22;9382;53.242;10.438;2023-07-30T02:56:02;15.60;99.90
18506;DHT22;9382;53.242;10.438;2023-07-30T02:58:29;15.60;99.90
18506;DHT22;9382;53.242;10.438;2023-07-30T03:01:05;15.60;99.90
18506;DHT22;9382;53.242;10.438;2023-07-30T03:03:33;15.70;99.90
18506;DHT22;9382;53.242;10.438;2023-07-30T03:06:00;15.70;99.90
18506;DHT22;9382;53.242;10.438;2023-07-30T03:08:26;15.70;99.90
18506;DHT22;9382;53.242;10.438;2023-07-30T03:10:53;15.70;99.90
18506;DHT22;9382;53.242;10.438;2023-07-30T03:13:20;15.70;99.90
18506;DHT22;9382;53.242;10.438;2023-07-30T03:15:47;15.70;99.90
18506;DHT22;9382;53.242;10.438;2023-07-30T03:18:13;15.60;99.90
18506;DHT22;9382;53.242;10.438;2023-07-30T03:20:41;15.60;99.90
18506;DHT22;9382;53.242;10.438;2023-07-30T03:23:08;15.60;99.90
18506;DHT22;9382;53.242;10.438;2023-07-30T03:25:35;15.60;99.90
18506;DHT22;9382;53.242;10.438;2023-07-30T03:28:02;15.60;99.90
18506;DHT22;9382;53.242;10.438;2023-07-30T03:30:28;15.50;99.90
18506;DHT22;9382;53.242;10.438;2023-07-30T03:32:55;15.50;99.90
18506;DHT22;9382;53.242;10.438;2023-07-30T03:35:22;15.50;99.90
18506;DHT22;9382;53.242;10.438;2023-07-30T03:37:50;15.50;99.90
18506;DHT22;9382;53.242;10.438;2023-07-30T03:40:17;15.50;99.90
18506;DHT22;9382;53.242;10.438;2023-07-30T03:42:44;15.40;99.90
18506;DHT22;9382;53.242;10.438;2023-07-30T03:45:11;15.40;99.90
18506;DHT22;9382;53.242;10.438;2023-07-30T03:47:37;15.40;99.90
18506;DHT22;9382;53.242;10.438;2023-07-30T03:50:05;15.30;99.90
18506;DHT22;9382;53.242;10.438;2023-07-30T03:52:32;15.40;99.90
18506;DHT22;9382;53.242;10.438;2023-07-30T03:55:00;15.40;99.90
18506;DHT22;9382;53.242;10.438;2023-07-30T03:57:27;15.40;99.90
18506;DHT22;9382;53.242;10.438;2023-07-30T03:59:53;15.40;99.90
18506;DHT22;9382;53.242;10.438;2023-07-30T04:02:20;15.40;99.90
18506;DHT22;9382;53.242;10.438;2023-07-30T04:04:47;15.30;99.90
18506;DHT22;9382;53.242;10.438;2023-07-30T04:07:15;15.30;99.90
18506;DHT22;9382;53.242;10.438;2023-07-30T04:09:42;15.20;99.90
18506;DHT22;9382;53.242;10.438;2023-07-30T04:12:10;15.20;99.90
18506;DHT22;9382;53.242;10.438;2023-07-30T04:14:37;15.20;99.90
18506;DHT22;9382;53.242;10.438;2023-07-30T04:17:03;15.20;99.90
18506;DHT22;9382;53.242;10.438;2023-07-30T04:19:30;15.20;99.90
18506;DHT22;9382;53.242;10.438;2023-07-30T04:21:57;15.20;99.90
18506;DHT22;9382;53.242;10.438;2023-07-30T04:24:24;15.20;99.90
18506;DHT22;9382;53.242;10.438;2023-07-30T04:26:51;15.20;99.90
18506;DHT22;9382;53.242;10.438;2023-07-30T04:29:19;15.20;99.90
18506;DHT22;9382;53.242;10.438;2023-07-30T04:31:46;15.20;99.90
18506;DHT22;9382;53.242;10.438;2023-07-30T04:34:13;15.30;99.90
18506;DHT22;9382;53.242;10.438;2023-07-30T04:36:39;15.30;99.90
18506;DHT22;9382;53.242;10.438;2023-07-30T04:39:06;15.40;99.90
18506;DHT22;9382;53.242;10.438;2023-07-30T04:41:32;15.40;99.90
18506;DHT22;9382;53.242;10.438;2023-07-30T04:43:59;15.50;99.90
18506;DHT22;9382;53.242;10.438;2023-07-30T04:46:27;15.50;99.90
18506;DHT22;9382;53.242;10.438;2023-07-30T04:48:55;15.50;99.90
18506;DHT22;9382;53.242;10.438;2023-07-30T04:51:22;15.50;99.90
18506;DHT22;9382;53.242;10.438;2023-07-30T04:53:48;15.50;99.90
18506;DHT22;9382;53.242;10.438;2023-07-30T04:56:15;15.60;99.90
18506;DHT22;9382;53.242;10.438;2023-07-30T04:58:42;15.60;99.90
18506;DHT22;9382;53.242;10.438;2023-07-30T05:01:09;15.70;99.90
18506;DHT22;9382;53.242;10.438;2023-07-30T05:03:37;15.70;99.90
18506;DHT22;9382;53.242;10.438;2023-07-30T05:06:04;15.70;99.90
18506;DHT22;9382;53.242;10.438;2023-07-30T05:08:31;15.70;99.90
18506;DHT22;9382;53.242;10.438;2023-07-30T05:10:58;15.80;99.90
18506;DHT22;9382;53.242;10.438;2023-07-30T05:13:25;15.80;99.90
18506;DHT22;9382;53.242;10.438;2023-07-30T05:15:51;15.90;99.90
18506;DHT22;9382;53.242;10.438;2023-07-30T05:18:18;15.90;99.90
18506;DHT22;9382;53.242;10.438;2023-07-30T05:20:47;16.00;99.90
18506;DHT22;9382;53.242;10.438;2023-07-30T05:23:14;16.00;99.90
18506;DHT22;9382;53.242;10.438;2023-07-30T05:25:41;16.00;99.90
18506;DHT22;9382;53.242;10.438;2023-07-30T05:28:07;16.10;99.90
18506;DHT22;9382;53.242;10.438;2023-07-30T05:30:34;16.30;99.90
18506;DHT22;9382;53.242;10.438;2023-07-30T05:33:01;16.30;99.90
18506;DHT22;9382;53.242;10.438;2023-07-30T05:35:28;16.40;99.90
18506;DHT22;9382;53.242;10.438;2023-07-30T05:37:56;16.50;99.90
18506;DHT22;9382;53.242;10.438;2023-07-30T05:40:23;16.60;99.90
18506;DHT22;9382;53.242;10.438;2023-07-30T05:42:49;16.70;99.90
18506;DHT22;9382;53.242;10.438;2023-07-30T05:45:16;16.70;99.90
18506;DHT22;9382;53.242;10.438;2023-07-30T05:47:43;16.80;99.90
18506;DHT22;9382;53.242;10.438;2023-07-30T05:50:10;16.90;99.90
18506;DHT22;9382;53.242;10.438;2023-07-30T05:52:37;17.00;99.90
18506;DHT22;9382;53.242;10.438;2023-07-30T05:55:06;17.10;99.90
18506;DHT22;9382;53.242;10.438;2023-07-30T05:57:32;17.20;99.90
18506;DHT22;9382;53.242;10.438;2023-07-30T05:59:59;17.20;99.90
18506;DHT22;9382;53.242;10.438;2023-07-30T06:02:26;17.30;99.90
18506;DHT22;9382;53.242;10.438;2023-07-30T06:04:52;17.30;99.90
18506;DHT22;9382;53.242;10.438;2023-07-30T06:07:19;17.30;99.90
18506;DHT22;9382;53.242;10.438;2023-07-30T06:09:46;17.20;99.90
18506;DHT22;9382;53.242;10.438;2023-07-30T06:12:14;17.20;99.90
18506;DHT22;9382;53.242;10.438;2023-07-30T06:14:41;17.10;99.90
18506;DHT22;9382;53.242;10.438;2023-07-30T06:17:07;17.00;99.90
18506;DHT22;9382;53.242;10.438;2023-07-30T06:19:34;17.00;99.90
18506;DHT22;9382;53.242;10.438;2023-07-30T06:22:01;17.00;99.90
18506;DHT22;9382;53.242;10.438;2023-07-30T06:24:28;17.00;99.90
18506;DHT22;9382;53.242;10.438;2023-07-30T06:26:54;17.10;99.90
18506;DHT22;9382;53.242;10.438;2023-07-30T06:29:22;17.10;99.90
18506;DHT22;9382;53.242;10.438;2023-07-30T06:31:49;17.20;99.90
18506;DHT22;9382;53.242;10.438;2023-07-30T06:34:16;17.10;99.90
18506;DHT22;9382;53.242;10.438;2023-07-30T06:36:43;17.10;99.90
18506;DHT22;9382;53.242;10.438;2023-07-30T06:39:10;17.20;99.90
18506;DHT22;9382;53.242;10.438;2023-07-30T06:41:36;17.20;99.90
18506;DHT22;9382;53.242;10.438;2023-07-30T06:44:03;17.30;99.90
18506;DHT22;9382;53.242;10.438;2023-07-30T06:46:31;17.50;99.90
18506;DHT22;9382;53.242;10.438;2023-07-30T06:48:58;17.60;99.90
18506;DHT22;9382;53.242;10.438;2023-07-30T06:51:25;17.70;99.90
18506;DHT22;9382;53.242;10.438;2023-07-30T06:53:52;17.80;99.90
18506;DHT22;9382;53.242;10.438;2023-07-30T06:56:18;17.90;99.90
18506;DHT22;9382;53.242;10.438;2023-07-30T06:58:45;18.10;99.90
18506;DHT22;9382;53.242;10.438;2023-07-30T07:01:12;18.10;99.90
18506;DHT22;9382;53.242;10.438;2023-07-30T07:03:40;18.20;99.90
18506;DHT22;9382;53.242;10.438;2023-07-30T07:06:07;18.20;99.90
18506;DHT22;9382;53.242;10.438;2023-07-30T07:08:33;18.30;99.90
18506;DHT22;9382;53.242;10.438;2023-07-30T07:11:00;18.30;99.90
18506;DHT22;9382;53.242;10.438;2023-07-30T07:13:27;18.40;99.90
18506;DHT22;9382;53.242;10.438;2023-07-30T07:15:54;18.50;99.90
18506;DHT22;9382;53.242;10.438;2023-07-30T07:18:20;18.60;99.90
18506;DHT22;9382;53.242;10.438;2023-07-30T07:20:49;18.70;99.90
18506;DHT22;9382;53.242;10.438;2023-07-30T07:23:15;18.60;99.90
18506;DHT22;9382;53.242;10.438;2023-07-30T07:25:43;18.60;99.90
18506;DHT22;9382;53.242;10.438;2023-07-30T07:28:10;18.70;99.90
18506;DHT22;9382;53.242;10.438;2023-07-30T07:30:37;18.80;99.90
18506;DHT22;9382;53.242;10.438;2023-07-30T07:33:04;19.00;99.90
18506;DHT22;9382;53.242;10.438;2023-07-30T07:35:32;19.10;99.90
18506;DHT22;9382;53.242;10.438;2023-07-30T07:38:00;19.30;99.90
18506;DHT22;9382;53.242;10.438;2023-07-30T07:40:26;19.30;99.90
18506;DHT22;9382;53.242;10.438;2023-07-30T07:42:55;19.30;99.90
18506;DHT22;9382;53.242;10.438;2023-07-30T07:45:22;19.30;99.90
18506;DHT22;9382;53.242;10.438;2023-07-30T07:47:48;19.30;99.90
18506;DHT22;9382;53.242;10.438;2023-07-30T07:50:15;19.30;99.90
18506;DHT22;9382;53.242;10.438;2023-07-30T07:52:42;19.50;99.90
18506;DHT22;9382;53.242;10.438;2023-07-30T07:55:10;19.70;99.90
18506;DHT22;9382;53.242;10.438;2023-07-30T07:57:37;19.90;99.90
18506;DHT22;9382;53.242;10.438;2023-07-30T08:00:04;19.90;99.90
18506;DHT22;9382;53.242;10.438;2023-07-30T08:02:31;19.90;99.90
18506;DHT22;9382;53.242;10.438;2023-07-30T08:04:58;20.00;99.90
18506;DHT22;9382;53.242;10.438;2023-07-30T08:07:25;20.10;99.90
18506;DHT22;9382;53.242;10.438;2023-07-30T08:09:52;20.20;99.90
18506;DHT22;9382;53.242;10.438;2023-07-30T08:12:21;20.30;99.90
18506;DHT22;9382;53.242;10.438;2023-07-30T08:14:48;20.30;99.90
18506;DHT22;9382;53.242;10.438;2023-07-30T08:17:15;20.50;99.90
18506;DHT22;9382;53.242;10.438;2023-07-30T08:19:41;20.60;99.90
18506;DHT22;9382;53.242;10.438;2023-07-30T08:22:08;20.60;99.90
18506;DHT22;9382;53.242;10.438;2023-07-30T08:24:35;20.70;99.90
18506;DHT22;9382;53.242;10.438;2023-07-30T08:27:02;20.70;99.90
18506;DHT22;9382;53.242;10.438;2023-07-30T08:29:30;20.80;99.90
18506;DHT22;9382;53.242;10.438;2023-07-30T08:31:57;20.90;99.90
18506;DHT22;9382;53.242;10.438;2023-07-30T08:34:23;21.10;99.90
18506;DHT22;9382;53.242;10.438;2023-07-30T08:36:50;21.40;99.90
18506;DHT22;9382;53.242;10.438;2023-07-30T08:39:17;21.50;99.90
18506;DHT22;9382;53.242;10.438;2023-07-30T08:41:45;21.40;99.90
18506;DHT22;9382;53.242;10.438;2023-07-30T08:44:12;21.50;99.90
18506;DHT22;9382;53.242;10.438;2023-07-30T08:46:40;21.30;99.90
18506;DHT22;9382;53.242;10.438;2023-07-30T08:49:07;21.50;99.90
18506;DHT22;9382;53.242;10.438;2023-07-30T08:51:36;21.60;99.90
18506;DHT22;9382;53.242;10.438;2023-07-30T08:54:03;21.70;99.90
18506;DHT22;9382;53.242;10.438;2023-07-30T08:56:30;21.90;99.90
18506;DHT22;9382;53.242;10.438;2023-07-30T08:58:58;22.20;99.90
18506;DHT22;9382;53.242;10.438;2023-07-30T09:01:26;22.20;99.90
18506;DHT22;9382;53.242;10.438;2023-07-30T09:03:57;22.40;99.90
18506;DHT22;9382;53.242;10.438;2023-07-30T09:06:25;22.10;99.90
18506;DHT22;9382;53.242;10.438;2023-07-30T09:08:53;22.00;99.90
18506;DHT22;9382;53.242;10.438;2023-07-30T09:11:19;22.00;99.90
18506;DHT22;9382;53.242;10.438;2023-07-30T09:13:46;22.30;99.90
18506;DHT22;9382;53.242;10.438;2023-07-30T09:16:14;22.30;99.90
18506;DHT22;9382;53.242;10.438;2023-07-30T09:18:41;22.30;99.90
18506;DHT22;9382;53.242;10.438;2023-07-30T09:21:11;22.20;99.90
18506;DHT22;9382;53.242;10.438;2023-07-30T09:23:42;22.10;99.90
18506;DHT22;9382;53.242;10.438;2023-07-30T09:26:09;22.20;99.90
18506;DHT22;9382;53.242;10.438;2023-07-30T09:28:36;22.50;99.90
18506;DHT22;9382;53.242;10.438;2023-07-30T09:31:04;22.60;99.90
18506;DHT22;9382;53.242;10.438;2023-07-30T09:33:31;22.90;99.90
18506;DHT22;9382;53.242;10.438;2023-07-30T09:36:00;23.10;99.90
18506;DHT22;9382;53.242;10.438;2023-07-30T09:38:29;23.00;99.90
18506;DHT22;9382;53.242;10.438;2023-07-30T09:41:00;22.90;99.90
18506;DHT22;9382;53.242;10.438;2023-07-30T09:43:28;22.40;99.90
18506;DHT22;9382;53.242;10.438;2023-07-30T09:46:01;22.40;99.90
18506;DHT22;9382;53.242;10.438;2023-07-30T09:48:29;22.30;99.90
18506;DHT22;9382;53.242;10.438;2023-07-30T09:50:57;22.30;99.90
18506;DHT22;9382;53.242;10.438;2023-07-30T09:53:25;22.40;99.90
18506;DHT22;9382;53.242;10.438;2023-07-30T09:55:56;22.10;99.90
18506;DHT22;9382;53.242;10.438;2023-07-30T09:58:22;22.00;99.90
18506;DHT22;9382;53.242;10.438;2023-07-30T10:00:50;21.80;99.90
18506;DHT22;9382;53.242;10.438;2023-07-30T10:03:18;21.70;99.90
18506;DHT22;9382;53.242;10.438;2023-07-30T10:05:46;21.80;99.90
18506;DHT22;9382;53.242;10.438;2023-07-30T10:08:19;22.00;99.90
18506;DHT22;9382;53.242;10.438;2023-07-30T10:10:47;22.00;99.90
18506;DHT22;9382;53.242;10.438;2023-07-30T10:13:16;22.10;99.90
18506;DHT22;9382;53.242;10.438;2023-07-30T10:15:46;22.10;99.90
18506;DHT22;9382;53.242;10.438;2023-07-30T10:18:13;22.10;99.90
18506;DHT22;9382;53.242;10.438;2023-07-30T10:20:40;22.00;99.90
18506;DHT22;9382;53.242;10.438;2023-07-30T10:23:07;21.90;99.90
18506;DHT22;9382;53.242;10.438;2023-07-30T10:25:45;21.90;99.90
18506;DHT22;9382;53.242;10.438;2023-07-30T10:28:31;22.10;99.90
18506;DHT22;9382;53.242;10.438;2023-07-30T10:30:59;22.00;99.90
18506;DHT22;9382;53.242;10.438;2023-07-30T10:33:43;22.00;99.90
18506;DHT22;9382;53.242;10.438;2023-07-30T10:36:10;21.80;99.90
18506;DHT22;9382;53.242;10.438;2023-07-30T10:38:38;21.80;99.90
18506;DHT22;9382;53.242;10.438;2023-07-30T10:41:08;21.80;99.90
18506;DHT22;9382;53.242;10.438;2023-07-30T10:43:39;21.70;99.90
18506;DHT22;9382;53.242;10.438;2023-07-30T10:46:06;21.60;99.90
18506;DHT22;9382;53.242;10.438;2023-07-30T10:48:34;21.70;99.90
18506;DHT22;9382;53.242;10.438;2023-07-30T10:51:02;21.60;99.90
18506;DHT22;9382;53.242;10.438;2023-07-30T10:53:29;21.40;99.90
18506;DHT22;9382;53.242;10.438;2023-07-30T10:55:58;21.40;99.90
18506;DHT22;9382;53.242;10.438;2023-07-30T10:58:27;21.40;99.90
18506;DHT22;9382;53.242;10.438;2023-07-30T11:00:56;21.30;99.90
18506;DHT22;9382;53.242;10.438;2023-07-30T11:03:24;21.10;99.90
18506;DHT22;9382;53.242;10.438;2023-07-30T11:05:52;21.10;99.90
18506;DHT22;9382;53.242;10.438;2023-07-30T11:08:30;21.10;99.90
18506;DHT22;9382;53.242;10.438;2023-07-30T11:10:58;21.10;99.90
18506;DHT22;9382;53.242;10.438;2023-07-30T11:13:25;21.20;99.90
18506;DHT22;9382;53.242;10.438;2023-07-30T11:15:52;21.40;99.90
18506;DHT22;9382;53.242;10.438;2023-07-30T11:18:20;21.60;99.90
18506;DHT22;9382;53.242;10.438;2023-07-30T11:20:47;22.10;99.90
18506;DHT22;9382;53.242;10.438;2023-07-30T11:23:19;22.30;99.90
18506;DHT22;9382;53.242;10.438;2023-07-30T11:25:47;22.20;99.90
18506;DHT22;9382;53.242;10.438;2023-07-30T11:28:15;22.30;99.90
18506;DHT22;9382;53.242;10.438;2023-07-30T11:30:53;22.40;99.90
18506;DHT22;9382;53.242;10.438;2023-07-30T11:33:21;22.20;99.90
18506;DHT22;9382;53.242;10.438;2023-07-30T11:35:48;21.80;99.90
18506;DHT22;9382;53.242;10.438;2023-07-30T11:38:15;21.70;99.90
18506;DHT22;9382;53.242;10.438;2023-07-30T11:40:43;21.80;99.90
18506;DHT22;9382;53.242;10.438;2023-07-30T11:43:10;21.90;99.90
18506;DHT22;9382;53.242;10.438;2023-07-30T11:45:36;21.90;99.90
18506;DHT22;9382;53.242;10.438;2023-07-30T11:48:07;21.80;99.90
18506;DHT22;9382;53.242;10.438;2023-07-30T11:50:46;21.80;99.90
18506;DHT22;9382;53.242;10.438;2023-07-30T11:53:13;22.20;99.90
18506;DHT22;9382;53.242;10.438;2023-07-30T11:55:41;22.40;99.90
18506;DHT22;9382;53.242;10.438;2023-07-30T11:58:09;22.60;99.90
18506;DHT22;9382;53.242;10.438;2023-07-30T12:00:36;22.60;99.90
18506;DHT22;9382;53.242;10.438;2023-07-30T12:03:04;22.90;99.90
18506;DHT22;9382;53.242;10.438;2023-07-30T12:05:32;23.50;99.90
18506;DHT22;9382;53.242;10.438;2023-07-30T12:08:00;24.40;99.90
18506;DHT22;9382;53.242;10.438;2023-07-30T12:10:40;24.20;99.90
18506;DHT22;9382;53.242;10.438;2023-07-30T12:13:11;23.60;99.90
18506;DHT22;9382;53.242;10.438;2023-07-30T12:15:38;23.30;99.90
18506;DHT22;9382;53.242;10.438;2023-07-30T12:18:05;23.80;99.90
18506;DHT22;9382;53.242;10.438;2023-07-30T12:20:32;24.00;99.90
18506;DHT22;9382;53.242;10.438;2023-07-30T12:23:00;24.70;99.90
18506;DHT22;9382;53.242;10.438;2023-07-30T12:25:28;25.90;99.90
18506;DHT22;9382;53.242;10.438;2023-07-30T12:27:55;27.50;99.90
18506;DHT22;9382;53.242;10.438;2023-07-30T12:30:22;28.10;99.90
18506;DHT22;9382;53.242;10.438;2023-07-30T12:32:49;27.90;99.90
18506;DHT22;9382;53.242;10.438;2023-07-30T12:35:15;27.60;99.90
18506;DHT22;9382;53.242;10.438;2023-07-30T12:37:42;27.40;99.90
18506;DHT22;9382;53.242;10.438;2023-07-30T12:40:11;27.60;99.90
18506;DHT22;9382;53.242;10.438;2023-07-30T12:42:38;26.80;99.90
18506;DHT22;9382;53.242;10.438;2023-07-30T12:45:05;25.70;99.90
18506;DHT22;9382;53.242;10.438;2023-07-30T12:47:32;25.60;99.90
18506;DHT22;9382;53.242;10.438;2023-07-30T12:50:00;25.40;99.90
18506;DHT22;9382;53.242;10.438;2023-07-30T12:52:27;24.90;99.90
18506;DHT22;9382;53.242;10.438;2023-07-30T12:54:54;25.00;99.90
18506;DHT22;9382;53.242;10.438;2023-07-30T12:57:22;25.00;99.90
18506;DHT22;9382;53.242;10.438;2023-07-30T12:59:49;25.30;99.90
18506;DHT22;9382;53.242;10.438;2023-07-30T13:02:16;25.20;99.90
18506;DHT22;9382;53.242;10.438;2023-07-30T13:04:42;24.50;99.90
18506;DHT22;9382;53.242;10.438;2023-07-30T13:07:09;24.20;99.90
18506;DHT22;9382;53.242;10.438;2023-07-30T13:09:36;24.20;99.90
18506;DHT22;9382;53.242;10.438;2023-07-30T13:12:03;25.20;99.90
18506;DHT22;9382;53.242;10.438;2023-07-30T13:14:31;26.60;99.90
18506;DHT22;9382;53.242;10.438;2023-07-30T13:16:58;26.80;99.90
18506;DHT22;9382;53.242;10.438;2023-07-30T13:19:25;27.30;99.90
18506;DHT22;9382;53.242;10.438;2023-07-30T13:21:53;27.60;99.90
18506;DHT22;9382;53.242;10.438;2023-07-30T13:24:20;28.60;99.90
18506;DHT22;9382;53.242;10.438;2023-07-30T13:26:47;29.30;99.90
18506;DHT22;9382;53.242;10.438;2023-07-30T13:29:13;29.10;99.90
18506;DHT22;9382;53.242;10.438;2023-07-30T13:31:41;28.40;99.90
18506;DHT22;9382;53.242;10.438;2023-07-30T13:34:08;27.40;99.90
18506;DHT22;9382;53.242;10.438;2023-07-30T13:36:35;26.40;99.90
18506;DHT22;9382;53.242;10.438;2023-07-30T13:39:02;25.40;99.90
18506;DHT22;9382;53.242;10.438;2023-07-30T13:41:28;24.70;99.90
18506;DHT22;9382;53.242;10.438;2023-07-30T13:43:55;23.80;99.90
18506;DHT22;9382;53.242;10.438;2023-07-30T13:46:22;23.20;99.90
18506;DHT22;9382;53.242;10.438;2023-07-30T13:48:50;22.50;99.90
18506;DHT22;9382;53.242;10.438;2023-07-30T13:51:17;22.10;99.90
18506;DHT22;9382;53.242;10.438;2023-07-30T13:53:43;22.10;99.90
18506;DHT22;9382;53.242;10.438;2023-07-30T13:56:10;21.90;99.90
18506;DHT22;9382;53.242;10.438;2023-07-30T13:58:37;21.80;99.90
18506;DHT22;9382;53.242;10.438;2023-07-30T14:01:05;21.50;99.90
18506;DHT22;9382;53.242;10.438;2023-07-30T14:03:34;21.10;99.90
18506;DHT22;9382;53.242;10.438;2023-07-30T14:06:02;20.90;99.90
18506;DHT22;9382;53.242;10.438;2023-07-30T14:08:29;20.60;99.90
18506;DHT22;9382;53.242;10.438;2023-07-30T14:10:56;20.30;99.90
18506;DHT22;9382;53.242;10.438;2023-07-30T14:13:24;19.90;99.90
18506;DHT22;9382;53.242;10.438;2023-07-30T14:15:51;19.50;99.90
18506;DHT22;9382;53.242;10.438;2023-07-30T14:18:18;19.20;99.90
18506;DHT22;9382;53.242;10.438;2023-07-30T14:20:45;18.80;99.90
18506;DHT22;9382;53.242;10.438;2023-07-30T14:23:13;18.40;99.90
18506;DHT22;9382;53.242;10.438;2023-07-30T14:25:40;17.90;99.90
18506;DHT22;9382;53.242;10.438;2023-07-30T14:28:07;17.50;99.90
18506;DHT22;9382;53.242;10.438;2023-07-30T14:30:33;17.30;99.90
18506;DHT22;9382;53.242;10.438;2023-07-30T14:33:01;17.10;99.90
18506;DHT22;9382;53.242;10.438;2023-07-30T14:35:28;16.90;99.90
18506;DHT22;9382;53.242;10.438;2023-07-30T14:37:55;17.00;99.90
18506;DHT22;9382;53.242;10.438;2023-07-30T14:40:23;17.10;99.90
18506;DHT22;9382;53.242;10.438;2023-07-30T14:42:50;17.30;99.90
18506;DHT22;9382;53.242;10.438;2023-07-30T14:45:17;17.90;99.90
18506;DHT22;9382;53.242;10.438;2023-07-30T14:47:43;19.40;99.90
18506;DHT22;9382;53.242;10.438;2023-07-30T14:50:10;20.90;99.90
18506;DHT22;9382;53.242;10.438;2023-07-30T14:52:37;21.60;99.90
18506;DHT22;9382;53.242;10.438;2023-07-30T14:55:04;21.50;99.90
18506;DHT22;9382;53.242;10.438;2023-07-30T14:57:33;21.40;99.90
18506;DHT22;9382;53.242;10.438;2023-07-30T14:59:59;20.80;99.90
18506;DHT22;9382;53.242;10.438;2023-07-30T15:02:26;20.00;99.90
18506;DHT22;9382;53.242;10.438;2023-07-30T15:04:53;19.30;99.90
18506;DHT22;9382;53.242;10.438;2023-07-30T15:07:20;18.90;99.90
18506;DHT22;9382;53.242;10.438;2023-07-30T15:09:50;18.80;99.90
18506;DHT22;9382;53.242;10.438;2023-07-30T15:12:17;18.60;99.90
18506;DHT22;9382;53.242;10.438;2023-07-30T15:14:46;18.50;99.90
18506;DHT22;9382;53.242;10.438;2023-07-30T15:17:13;18.40;99.90
18506;DHT22;9382;53.242;10.438;2023-07-30T15:19:40;18.50;99.90
18506;DHT22;9382;53.242;10.438;2023-07-30T15:22:06;19.20;99.90
18506;DHT22;9382;53.242;10.438;2023-07-30T15:24:33;20.00;99.90
18506;DHT22;9382;53.242;10.438;2023-07-30T15:27:00;20.10;99.90
18506;DHT22;9382;53.242;10.438;2023-07-30T15:29:27;19.90;99.90
18506;DHT22;9382;53.242;10.438;2023-07-30T15:31:56;19.80;99.90